Flight Track Log - Related Links

Times and Time Zones

All times are in EDT time to prevent confusion due to time zone crossing. See the CPZ5702 flight status page for this flight to view local times or setup timezone preferences in your user account.

Time Position Orientation Groundspeed Altitude Reporting Facility
EDT Latitude Longitude Course Direction KTS MPH feet Rate Location/Type
Sun 03:16:49 PM 42.9500 -78.7000 274° West 155 178 1,700  Level Buffalo TRACON
Sun 03:17:55 PM 43.0000 -78.7000 360° North 221 254 3,500 2,238 Climbing Buffalo TRACON
Sun 03:18:55 PM 43.0167 -78.8000 283° West 284 327 6,400 3,200 Climbing Buffalo TRACON
Sun 03:19:00 PM 42.9667 -79.3243 270° West  Level FlightAware Approximate
Sun 03:19:55 PM 43.0167 -78.9000 270° West 260 299 9,900  Level Buffalo TRACON
Sun 03:20:00 PM 42.9667 -79.4773 270° West  Level FlightAware Approximate
Sun 03:20:55 PM 43.0333 -79.0000 283° West 330 380 11,400  Level Buffalo TRACON
Sun 03:21:00 PM 42.9730 -79.6299 274° West  Level FlightAware Approximate
Sun 03:21:55 PM 43.0333 -79.1333 270° West 357 411 13,900  Level Buffalo TRACON
Sun 03:22:00 PM 42.9802 -79.7825 274° West  Level FlightAware Approximate
Sun 03:22:55 PM 43.0333 -79.2667 270° West 353 406 16,300  Level Buffalo TRACON
Sun 03:23:55 PM 43.0500 -79.4000 280° West 366 421 18,800 2,238 Climbing Buffalo TRACON
Sun 03:25:01 PM 43.0500 -79.5667 270° West 375 432 21,000 1,907 Climbing Buffalo TRACON
Sun 03:25:42 PM 43.0333 -79.6333 251° West 380 437 22,200 1,723 Climbing Toronto Center
Sun 03:26:42 PM 43.0333 -79.8000 270° West 390 449 23,900 1,700 Climbing Toronto Center
Sun 03:27:42 PM 43.0333 -79.9500 270° West 400 460 25,600 2,200 Climbing Toronto Center
Sun 03:28:42 PM 43.0333 -80.0833 270° West 400 460 28,300 2,100 Climbing Toronto Center
Sun 03:29:42 PM 43.0333 -80.2333 270° West 370 426 29,800 1,400 Climbing Toronto Center
Sun 03:31:00 PM 43.0481 -80.4227 264° West  Level FlightAware Approximate
Sun 03:31:42 PM 43.0667 -80.5167 264° West 390 449 32,500  Level Toronto Center
Sun 03:32:42 PM 43.1000 -80.6667 287° West 380 437 34,000 900 Climbing Toronto Center
Sun 03:33:42 PM 43.1333 -80.8000 289° West 380 437 34,300 650 Climbing Toronto Center
Sun 03:34:42 PM 43.1500 -80.9333 280° West 390 449 35,300 850 Climbing Toronto Center
Sun 03:35:42 PM 43.1833 -81.0667 289° West 390 449 36,000 350 Climbing Toronto Center
Sun 03:36:42 PM 43.2167 -81.2333 285° West 390 449 36,000  Level Toronto Center
Sun 03:37:42 PM 43.2500 -81.3667 289° West 410 472 36,000  Level Toronto Center
Sun 03:38:42 PM 43.2833 -81.5333 285° West 410 472 36,000  Level Toronto Center
Sun 03:39:42 PM 43.3167 -81.7000 285° West 420 483 36,000  Level Toronto Center
Sun 03:40:42 PM 43.3667 -81.8333 297° West 430 495 36,000  Level Toronto Center
Sun 03:41:42 PM 43.3833 -82.0000 278° West 430 495 36,000  Level Toronto Center
Sun 03:43:16 PM 43.4486 -82.2444 290° West 436 502 36,000  Level Cleveland Center
Sun 03:44:16 PM 43.4817 -82.3969 287° West 429 494 36,000  Level Cleveland Center
Sun 03:45:16 PM 43.5144 -82.5556 286° West 424 488 36,000  Level Cleveland Center
Sun 03:46:17 PM 43.5492 -82.7111 287° West 424 488 36,000  Level Cleveland Center
Sun 03:47:16 PM 43.5817 -82.8700 286° West 424 488 36,000  Level Cleveland Center
Sun 03:48:42 PM 43.6333 -83.1167 286° West 430 495 36,000  Level Toronto Center
Sun 03:50:10 PM 43.6797 -83.3489 286° West 438 504 36,000  Level Minneapolis Center
Sun 03:51:12 PM 43.7125 -83.5117 286° West 441 507 36,000  Level Minneapolis Center
Sun 03:52:14 PM 43.7453 -83.6764 285° West 445 512 36,000  Level Minneapolis Center
Sun 03:53:16 PM 43.7717 -83.8069 286° West 443 510 36,000  Level Minneapolis Center
Sun 03:54:18 PM 43.8111 -84.0044 286° West 444 511 36,000  Level Minneapolis Center
Sun 03:55:20 PM 43.8511 -84.2014 286° West 445 512 36,000  Level Minneapolis Center
Sun 03:56:22 PM 43.8833 -84.3658 285° West 445 512 36,000  Level Minneapolis Center
Sun 03:57:24 PM 43.9147 -84.5289 285° West 442 509 36,000  Level Minneapolis Center
Sun 03:59:00 PM 43.9555 -84.7626 284° West  Level FlightAware Approximate
Sun 03:59:28 PM 43.9778 -84.8600 284° West 446 513 36,000  Level Minneapolis Center
Sun 04:00:30 PM 44.0086 -85.0233 285° West 442 509 36,000  Level Minneapolis Center
Sun 04:01:32 PM 44.0450 -85.2158 285° West 442 509 36,000  Level Minneapolis Center
Sun 04:02:34 PM 44.0764 -85.3814 285° West 443 510 36,000  Level Minneapolis Center
Sun 04:03:36 PM 44.1064 -85.5481 284° West 443 510 36,000  Level Minneapolis Center
Sun 04:05:00 PM 44.1429 -85.7529 284° West  Level FlightAware Approximate
Sun 04:05:40 PM 44.1667 -85.8814 284° West 444 511 36,000  Level Minneapolis Center
Sun 04:06:42 PM 44.2022 -86.0828 284° West 444 511 36,000  Level Minneapolis Center
Sun 04:07:44 PM 44.2325 -86.2506 284° West 444 511 36,000  Level Minneapolis Center
Sun 04:08:46 PM 44.2617 -86.4183 284° West 445 512 36,000  Level Minneapolis Center
Sun 04:09:48 PM 44.2906 -86.5856 284° West 443 510 36,000  Level Minneapolis Center
Sun 04:10:51 PM 44.3192 -86.7508 284° West 438 504 36,000  Level Minneapolis Center
Sun 04:11:53 PM 44.3481 -86.9169 284° West 440 506 36,000  Level Minneapolis Center
Sun 04:13:00 PM 44.3728 -87.0825 282° West  Level FlightAware Approximate
Sun 04:14:09 PM 44.4122 -87.3031 282° West 441 507 36,000  Level Minneapolis Center
Sun 04:15:23 PM 44.4394 -87.4692 283° West 439 505 36,000  Level Minneapolis Center
Sun 04:16:26 PM 44.4742 -87.6833 283° West 442 509 36,000  Level Minneapolis Center
Sun 04:17:28 PM 44.5006 -87.8494 283° West 440 506 36,000  Level Minneapolis Center
Sun 04:18:30 PM 44.5281 -88.0236 283° West 437 503 36,000  Level Minneapolis Center
Sun 04:19:44 PM 44.5547 -88.1914 283° West 442 509 36,000  Level Minneapolis Center
Sun 04:20:46 PM 44.5819 -88.4214 280° West 448 516 36,000  Level Minneapolis Center
Sun 04:21:48 PM 44.6022 -88.5933 279° West 449 517 36,000  Level Minneapolis Center
Sun 04:22:50 PM 44.6211 -88.7617 279° West 441 507 36,000  Level Minneapolis Center
Sun 04:23:53 PM 44.6394 -88.9275 279° West 434 499 36,000  Level Minneapolis Center
Sun 04:24:55 PM 44.6619 -89.1233 279° West 436 502 36,000  Level Minneapolis Center
Sun 04:25:57 PM 44.6797 -89.2911 279° West 435 501 36,000  Level Minneapolis Center
Sun 04:26:59 PM 44.6981 -89.4569 279° West 434 499 36,000 -435 Level Minneapolis Center
Sun 04:28:01 PM 44.7161 -89.6214 279° West 429 494 35,100 -968 Descending Minneapolis Center
Sun 04:29:03 PM 44.7331 -89.7861 278° West 427 491 34,000 -1,210 Descending Minneapolis Center
Sun 04:30:05 PM 44.7528 -89.9844 278° West 437 503 32,600 -968 Descending Minneapolis Center
Sun 04:31:07 PM 44.7703 -90.1517 278° West 434 499 32,000 -290 Descending Minneapolis Center
Sun 04:32:09 PM 44.7875 -90.3200 278° West 436 502 32,000  Level Minneapolis Center
Sun 04:33:11 PM 44.8053 -90.4908 278° West 440 506 32,000  Level Minneapolis Center
Sun 04:34:13 PM 44.8211 -90.6744 277° West 438 504 32,000 -242 Level Minneapolis Center
Sun 04:35:15 PM 44.8383 -90.8450 278° West 440 506 31,500 -1,403 Descending Minneapolis Center
Sun 04:36:17 PM 44.8544 -91.0144 278° West 441 507 29,100 -2,419 Descending Minneapolis Center
Sun 04:37:19 PM 44.8694 -91.1819 277° West 437 503 26,500 -2,661 Descending Minneapolis Center
Sun 04:38:21 PM 44.8886 -91.3744 278° West 421 484 23,600 -2,468 Descending Minneapolis Center
Sun 04:39:23 PM 44.9033 -91.5214 278° West 393 452 21,400 -2,177 Descending Minneapolis Center
Sun 04:40:25 PM 44.9317 -91.6603 286° West 374 430 19,100 -2,081 Descending Minneapolis Center
Sun 04:41:27 PM 44.9578 -91.7958 285° West 364 419 17,100 -1,920 Descending Minneapolis Center
Sun 04:42:30 PM 44.9833 -91.9286 285° West 352 405 15,100 -2,064 Descending Minneapolis Center
Sun 04:43:32 PM 45.0119 -92.0847 285° West 345 397 12,800 -1,984 Descending Minneapolis Center
Sun 04:44:34 PM 45.0350 -92.2086 285° West 330 380 11,000 -919 Descending Minneapolis Center
Sun 04:45:36 PM 45.0433 -92.3308 276° West 320 368 10,900 -581 Descending Minneapolis Center
Sun 04:46:38 PM 45.0003 -92.4336 239° Southwest 308 354 9,800 -1,016 Descending Minneapolis Center
Sun 04:47:40 PM 44.9556 -92.5331 238° Southwest 302 348 8,800 -1,065 Descending Minneapolis Center
Sun 04:48:42 PM 44.9106 -92.6303 237° Southwest 297 342 7,600 -919 Descending Minneapolis Center
Sun 04:49:44 PM 44.8567 -92.7472 237° Southwest 296 341 6,900 -919 Descending Minneapolis Center
Sun 04:50:46 PM 44.8133 -92.8419 237° Southwest 290 334 5,700 -1,403 Descending Minneapolis Center
Sun 04:51:48 PM 44.8114 -92.9492 269° West 272 313 4,000 -1,645 Descending Minneapolis Center

Login

Don't have an account? Register now (free) for customized features, flight alerts, and more!